createdAt,value
2023-02-04T00:03:05.455Z,100.00
2023-02-04T00:08:07.646Z,100.00
2023-02-04T00:13:10.574Z,100.00
2023-02-04T00:18:12.141Z,100.00
2023-02-04T00:23:13.711Z,100.00
2023-02-04T00:28:16.671Z,100.00
2023-02-04T00:33:18.252Z,100.00
2023-02-04T00:38:19.865Z,100.00
2023-02-04T00:43:22.759Z,100.00
2023-02-04T00:48:26.650Z,100.00
2023-02-04T00:53:28.279Z,100.00
2023-02-04T00:58:31.108Z,100.00
2023-02-04T01:03:32.789Z,100.00
2023-02-04T01:08:34.393Z,100.00
2023-02-04T01:13:37.318Z,100.00
2023-02-04T01:18:38.866Z,100.00
2023-02-04T01:23:40.442Z,100.00
2023-02-04T01:28:43.294Z,100.00
2023-02-04T01:33:44.884Z,100.00
2023-02-04T01:38:46.358Z,100.00
2023-02-04T01:43:49.873Z,100.00
2023-02-04T01:48:51.516Z,100.00
2023-02-04T01:53:53.094Z,100.00
2023-02-04T01:58:57.933Z,100.00
2023-02-04T02:03:59.421Z,100.00
2023-02-04T02:09:01.969Z,100.00
2023-02-04T02:14:05.377Z,100.00
2023-02-04T02:19:09.584Z,100.00
2023-02-04T02:24:27.600Z,100.00
2023-02-04T02:29:29.302Z,100.00
2023-02-04T02:34:31.258Z,100.00
2023-02-04T02:39:34.724Z,100.00
2023-02-04T02:44:36.309Z,100.00
2023-02-04T02:49:38.455Z,100.00
2023-02-04T02:54:42.251Z,100.00
2023-02-04T02:59:43.800Z,100.00
2023-02-04T03:04:49.389Z,100.00
2023-02-04T03:09:52.510Z,100.00
2023-02-04T03:14:54.218Z,100.00
2023-02-04T03:19:56.137Z,100.00
2023-02-04T03:24:59.126Z,100.00
2023-02-04T03:30:01.825Z,100.00
2023-02-04T03:35:03.664Z,100.00
2023-02-04T03:40:07.371Z,100.00
2023-02-04T03:45:09.598Z,100.00
2023-02-04T03:50:11.140Z,100.00
2023-02-04T03:55:14.050Z,100.00
2023-02-04T04:00:15.870Z,100.00
2023-02-04T04:05:17.570Z,100.00
2023-02-04T04:10:20.531Z,100.00
2023-02-04T04:15:22.109Z,100.00
2023-02-04T04:20:23.750Z,100.00
2023-02-04T04:25:26.644Z,100.00
2023-02-04T04:30:28.248Z,100.00
2023-02-04T04:35:29.896Z,100.00
2023-02-04T04:40:32.997Z,100.00
2023-02-04T04:45:34.712Z,100.00
2023-02-04T04:50:36.206Z,100.00
2023-02-04T04:55:39.433Z,100.00
2023-02-04T05:00:41.285Z,100.00
2023-02-04T05:05:42.885Z,100.00
2023-02-04T05:10:45.865Z,100.00
2023-02-04T05:15:47.409Z,100.00
2023-02-04T05:20:48.897Z,100.00
2023-02-04T05:25:51.808Z,100.00
2023-02-04T05:30:53.405Z,100.00
2023-02-04T05:35:55.092Z,100.00
2023-02-04T05:40:58.049Z,100.00
2023-02-04T05:45:59.706Z,100.00
2023-02-04T05:51:01.308Z,100.00
2023-02-04T05:56:04.662Z,100.00
2023-02-04T06:01:06.297Z,100.00
2023-02-04T06:06:07.957Z,100.00
2023-02-04T06:11:10.817Z,100.00
2023-02-04T06:16:14.101Z,100.00
2023-02-04T06:21:16.744Z,100.00
2023-02-04T06:26:19.666Z,100.00
2023-02-04T06:31:21.303Z,100.00
2023-02-04T06:36:22.987Z,100.00
2023-02-04T06:41:26.867Z,100.00
2023-02-04T06:46:28.546Z,100.00
2023-02-04T06:51:30.091Z,100.00
2023-02-04T06:56:32.951Z,100.00
2023-02-04T07:01:34.561Z,100.00
2023-02-04T07:06:36.154Z,100.00
2023-02-04T07:11:39.034Z,100.00
2023-02-04T07:16:40.653Z,100.00
2023-02-04T07:21:42.217Z,100.00
2023-02-04T07:26:45.138Z,100.00
2023-02-04T07:31:46.865Z,100.00
2023-02-04T07:36:48.524Z,100.00
2023-02-04T07:41:51.531Z,100.00
2023-02-04T07:46:53.125Z,100.00
2023-02-04T07:51:54.635Z,100.00
2023-02-04T07:56:57.619Z,100.00
2023-02-04T08:01:59.408Z,100.00
2023-02-04T08:07:00.880Z,100.00
2023-02-04T08:12:04.088Z,100.00
2023-02-04T08:17:05.592Z,100.00
2023-02-04T08:22:07.234Z,100.00
2023-02-04T08:27:10.162Z,100.00
2023-02-04T08:32:11.750Z,100.00
2023-02-04T08:37:13.328Z,100.00
2023-02-04T08:42:16.477Z,100.00
2023-02-04T08:47:18.014Z,100.00
2023-02-04T08:52:19.585Z,100.00
2023-02-04T08:57:22.516Z,100.00
2023-02-04T09:02:24.283Z,100.00
2023-02-04T09:07:25.841Z,100.00
2023-02-04T09:12:29.864Z,100.00
2023-02-04T09:17:31.350Z,100.00
2023-02-04T09:22:32.941Z,100.00
2023-02-04T09:27:35.829Z,100.00
2023-02-04T09:32:37.423Z,100.00
2023-02-04T09:37:38.982Z,100.00
2023-02-04T09:42:41.870Z,100.00
2023-02-04T09:47:43.501Z,100.00
2023-02-04T09:52:48.493Z,100.00
2023-02-04T09:57:51.367Z,100.00
2023-02-04T10:02:53.088Z,100.00
2023-02-04T10:07:54.806Z,100.00
2023-02-04T10:13:00.206Z,100.00
2023-02-04T10:18:04.166Z,100.00
2023-02-04T10:23:12.591Z,100.00
2023-02-04T10:28:15.730Z,100.00
2023-02-04T10:33:24.101Z,100.00
2023-02-04T10:38:25.604Z,97.65
2023-02-04T10:43:28.800Z,98.46
2023-02-04T10:48:39.079Z,99.81
2023-02-04T10:53:40.686Z,99.27
2023-02-04T10:58:44.013Z,100.00
2023-02-04T11:03:48.071Z,97.15
2023-02-04T11:08:50.676Z,100.00
2023-02-04T11:14:02.232Z,100.00
2023-02-04T11:19:06.210Z,99.94
2023-02-04T11:24:24.125Z,99.79
2023-02-04T11:29:27.748Z,100.00
2023-02-04T11:34:32.348Z,100.00
2023-02-04T11:39:36.977Z,97.17
2023-02-04T11:44:40.189Z,97.18
2023-02-04T11:49:42.163Z,91.85
2023-02-04T11:54:53.307Z,100.00
2023-02-04T11:59:56.184Z,92.77
2023-02-04T12:05:08.678Z,94.35
2023-02-04T12:10:13.452Z,92.29
2023-02-04T12:15:21.069Z,93.08
2023-02-04T12:20:22.619Z,91.69
2023-02-04T12:25:24.315Z,91.17
2023-02-04T12:30:27.496Z,100.00
2023-02-04T12:35:29.156Z,91.21
2023-02-04T12:40:30.976Z,95.68
2023-02-04T12:45:34.589Z,94.37
2023-02-04T12:50:36.242Z,95.30
2023-02-04T12:55:37.813Z,100.00
2023-02-04T13:00:40.661Z,97.66
2023-02-04T13:05:43.092Z,99.12
2023-02-04T13:10:44.667Z,93.71
2023-02-04T13:15:47.587Z,93.56
2023-02-04T13:20:49.106Z,92.73
2023-02-04T13:25:50.712Z,100.00
2023-02-04T13:30:53.654Z,100.00
2023-02-04T13:35:55.319Z,100.00
2023-02-04T13:40:56.862Z,100.00
2023-02-04T13:45:59.822Z,97.40
2023-02-04T13:51:01.409Z,97.87
2023-02-04T13:56:03.244Z,94.30
2023-02-04T14:01:06.317Z,93.49
2023-02-04T14:06:08.062Z,96.98
2023-02-04T14:11:09.651Z,99.48
2023-02-04T14:16:12.693Z,100.00
2023-02-04T14:21:14.204Z,97.98
2023-02-04T14:26:15.809Z,96.00
2023-02-04T14:31:18.926Z,99.00
2023-02-04T14:36:20.413Z,92.39
2023-02-04T14:41:21.966Z,91.83
2023-02-04T14:46:24.908Z,97.30
2023-02-04T14:51:26.789Z,91.40
2023-02-04T14:56:28.378Z,97.21
2023-02-04T15:01:31.353Z,100.00
2023-02-04T15:06:32.973Z,100.00
2023-02-04T15:11:34.525Z,100.00
2023-02-04T15:16:37.496Z,100.00
2023-02-04T15:21:39.011Z,99.84
2023-02-04T15:26:40.575Z,100.00
2023-02-04T15:31:43.579Z,95.71
2023-02-04T15:36:45.922Z,92.54
2023-02-04T15:41:47.444Z,91.47
2023-02-04T15:46:50.305Z,93.98
2023-02-04T15:51:51.891Z,97.64
2023-02-04T15:56:53.443Z,97.20
2023-02-04T16:01:56.373Z,95.12
2023-02-04T16:06:58.977Z,95.40
2023-02-04T16:12:00.780Z,93.08
2023-02-04T16:17:03.709Z,94.94
2023-02-04T16:22:05.390Z,93.76
2023-02-04T16:27:06.993Z,93.51
2023-02-04T16:32:09.924Z,89.24
2023-02-04T16:37:11.679Z,87.96
2023-02-04T16:42:13.235Z,87.83
2023-02-04T16:47:16.135Z,87.11
2023-02-04T16:52:17.708Z,87.64
2023-02-04T16:57:19.228Z,91.78
2023-02-04T17:02:23.156Z,94.73
2023-02-04T17:07:24.847Z,95.99
2023-02-04T17:12:26.422Z,96.67
2023-02-04T17:17:29.266Z,99.11
2023-02-04T17:22:30.772Z,98.49
2023-02-04T17:27:32.360Z,100.00
2023-02-04T17:32:35.277Z,100.00
2023-02-04T17:37:37.022Z,100.00
2023-02-04T17:42:38.834Z,100.00
2023-02-04T17:47:41.754Z,99.40
2023-02-04T17:52:43.283Z,94.48
2023-02-04T17:57:44.794Z,90.62
2023-02-04T18:02:50.540Z,90.51
2023-02-04T18:07:56.662Z,89.96
2023-02-04T18:12:59.558Z,93.24
2023-02-04T18:18:17.284Z,100.00
2023-02-04T18:23:19.127Z,95.70
2023-02-04T18:28:22.087Z,95.03
2023-02-04T18:33:26.804Z,96.65
2023-02-04T18:38:32.504Z,99.82
2023-02-04T18:43:36.864Z,94.66
2023-02-04T18:49:01.971Z,97.89
2023-02-04T18:54:25.623Z,97.69
2023-02-04T18:59:27.756Z,98.74
2023-02-04T19:04:33.683Z,100.00
2023-02-04T19:09:37.108Z,100.00
2023-02-04T19:14:40.672Z,96.65
2023-02-04T19:25:28.142Z,95.38
2023-02-04T19:30:46.477Z,94.63
2023-02-04T19:35:49.475Z,91.85
2023-02-04T19:40:54.184Z,91.72
2023-02-04T19:45:55.777Z,95.99
2023-02-04T19:51:00.482Z,100.00
2023-02-04T19:56:02.088Z,100.00
2023-02-04T20:01:05.549Z,98.86
2023-02-04T20:06:27.993Z,94.03
2023-02-04T20:11:55.521Z,92.36
2023-02-04T20:16:58.661Z,91.55
2023-02-04T20:22:36.133Z,91.70
2023-02-04T20:27:40.912Z,92.11
2023-02-04T20:32:45.308Z,89.85
2023-02-04T20:37:51.325Z,89.49
2023-02-04T20:42:56.490Z,87.26
2023-02-04T20:48:01.644Z,87.67
2023-02-04T20:53:15.107Z,86.70
2023-02-04T20:58:22.600Z,86.45
2023-02-04T21:03:27.637Z,86.09
2023-02-04T21:08:44.558Z,88.82
2023-02-04T21:13:46.108Z,98.28
2023-02-04T21:18:47.717Z,93.28
2023-02-04T21:23:50.654Z,90.64
2023-02-04T21:28:52.246Z,89.17
2023-02-04T21:33:53.808Z,89.60
2023-02-04T21:38:57.478Z,89.97
2023-02-04T21:43:59.006Z,88.62
2023-02-04T21:49:00.472Z,89.87
2023-02-04T21:54:03.557Z,90.02
2023-02-04T21:59:05.074Z,87.10
2023-02-04T22:04:06.701Z,86.88
2023-02-04T22:09:09.734Z,85.72
2023-02-04T22:14:11.262Z,87.30
2023-02-04T22:19:12.745Z,85.79
2023-02-04T22:24:15.640Z,99.60
2023-02-04T22:29:17.140Z,95.35
2023-02-04T22:34:18.636Z,100.00
2023-02-04T22:39:21.603Z,91.90
2023-02-04T22:44:23.154Z,92.49
2023-02-04T22:49:24.774Z,100.00
2023-02-04T22:54:27.717Z,97.24
2023-02-04T22:59:29.542Z,100.00
2023-02-04T23:04:31.033Z,100.00
2023-02-04T23:09:34.866Z,100.00
2023-02-04T23:14:36.336Z,100.00
2023-02-04T23:19:38.450Z,99.64
2023-02-04T23:24:42.387Z,96.48
2023-02-04T23:29:43.908Z,91.82
2023-02-04T23:34:45.492Z,98.18
2023-02-04T23:39:48.445Z,93.77
2023-02-04T23:44:50.043Z,93.50
2023-02-04T23:49:51.546Z,90.20
2023-02-04T23:54:54.427Z,89.41
2023-02-04T23:59:55.927Z,85.47
